<?xml version="1.0" encoding="UTF-8" standalone="no" ?>
<gpx xmlns="http://www.topografix.com/GPX/1/1" xmlns:xsi="http://www.w3.org/2001/XMLSchema-instance" xsi:schemaLocation="http://www.topografix.com/GPX/1/1 http://www.topografix.com/GPX/1/1/gpx.xsd" version="1.1" creator="VisuGPX - https://www.visugpx.com">
  <metadata>
    <name>Sente divine Nord</name>
  </metadata>
  <trk>
    <name><![CDATA[Sente divine Nord_1]]></name>
    <trkseg>
      <trkpt lat="46.88156" lon="-0.01729">
        <ele>64.6</ele>
      </trkpt>
      <trkpt lat="46.88165" lon="-0.01782">
        <ele>64</ele>
      </trkpt>
      <trkpt lat="46.88146" lon="-0.01839">
        <ele>63.3</ele>
      </trkpt>
      <trkpt lat="46.88128" lon="-0.0188">
        <ele>62.3</ele>
      </trkpt>
      <trkpt lat="46.88083" lon="-0.01818">
        <ele>61.3</ele>
      </trkpt>
      <trkpt lat="46.88073" lon="-0.01732">
        <ele>61.4</ele>
      </trkpt>
      <trkpt lat="46.88069" lon="-0.01646">
        <ele>61</ele>
      </trkpt>
      <trkpt lat="46.88064" lon="-0.01606">
        <ele>60.7</ele>
      </trkpt>
      <trkpt lat="46.88061" lon="-0.01556">
        <ele>60</ele>
      </trkpt>
      <trkpt lat="46.88059" lon="-0.01514">
        <ele>60.3</ele>
      </trkpt>
      <trkpt lat="46.88026" lon="-0.01511">
        <ele>60</ele>
        <time>2020-07-22T19:22:19Z</time>
      </trkpt>
      <trkpt lat="46.87957" lon="-0.01539">
        <ele>60</ele>
        <time>2020-07-22T19:23:17Z</time>
      </trkpt>
      <trkpt lat="46.8777" lon="-0.01672">
        <ele>65</ele>
        <time>2020-07-22T19:26:03Z</time>
      </trkpt>
      <trkpt lat="46.87656" lon="-0.01717">
        <ele>64</ele>
        <time>2020-07-22T19:27:38Z</time>
      </trkpt>
      <trkpt lat="46.87624" lon="-0.01747">
        <ele>63</ele>
        <time>2020-07-22T19:28:08Z</time>
      </trkpt>
      <trkpt lat="46.87567" lon="-0.01644">
        <ele>62</ele>
        <time>2020-07-22T19:29:21Z</time>
      </trkpt>
      <trkpt lat="46.87542" lon="-0.01535">
        <ele>62</ele>
        <time>2020-07-22T19:30:24Z</time>
      </trkpt>
      <trkpt lat="46.87537" lon="-0.01486">
        <ele>61</ele>
        <time>2020-07-22T19:30:51Z</time>
      </trkpt>
      <trkpt lat="46.87574" lon="-0.0143">
        <ele>60</ele>
        <time>2020-07-22T19:31:33Z</time>
      </trkpt>
      <trkpt lat="46.87584" lon="-0.01398">
        <ele>60</ele>
        <time>2020-07-22T19:31:53Z</time>
      </trkpt>
      <trkpt lat="46.87609" lon="-0.0138">
        <ele>61</ele>
        <time>2020-07-22T19:32:15Z</time>
      </trkpt>
      <trkpt lat="46.87608" lon="-0.01346">
        <ele>61</ele>
        <time>2020-07-22T19:32:33Z</time>
      </trkpt>
      <trkpt lat="46.87625" lon="-0.01235">
        <ele>62</ele>
        <time>2020-07-22T19:33:36Z</time>
      </trkpt>
      <trkpt lat="46.87555" lon="-0.01048">
        <ele>60</ele>
        <time>2020-07-22T19:35:32Z</time>
      </trkpt>
      <trkpt lat="46.87546" lon="-0.01007">
        <ele>59</ele>
        <time>2020-07-22T19:35:56Z</time>
      </trkpt>
      <trkpt lat="46.87517" lon="-0.00981">
        <ele>60</ele>
        <time>2020-07-22T19:36:23Z</time>
      </trkpt>
      <trkpt lat="46.87482" lon="-0.00958">
        <ele>61</ele>
        <time>2020-07-22T19:36:54Z</time>
      </trkpt>
      <trkpt lat="46.87461" lon="-0.00956">
        <ele>62</ele>
        <time>2020-07-22T19:37:11Z</time>
      </trkpt>
      <trkpt lat="46.87429" lon="-0.00919">
        <ele>64</ele>
        <time>2020-07-22T19:37:43Z</time>
      </trkpt>
      <trkpt lat="46.87401" lon="-0.00923">
        <ele>65</ele>
        <time>2020-07-22T19:38:06Z</time>
      </trkpt>
      <trkpt lat="46.8737" lon="-0.00887">
        <ele>66</ele>
        <time>2020-07-22T19:38:38Z</time>
      </trkpt>
      <trkpt lat="46.87328" lon="-0.00874">
        <ele>67</ele>
        <time>2020-07-22T19:39:12Z</time>
      </trkpt>
      <trkpt lat="46.87308" lon="-0.00838">
        <ele>64</ele>
        <time>2020-07-22T19:39:37Z</time>
      </trkpt>
      <trkpt lat="46.87279" lon="-0.00808">
        <ele>63</ele>
        <time>2020-07-22T19:40:06Z</time>
      </trkpt>
      <trkpt lat="46.87253" lon="-0.00823">
        <ele>63</ele>
        <time>2020-07-22T19:40:28Z</time>
      </trkpt>
      <trkpt lat="46.87226" lon="-0.00803">
        <ele>62</ele>
        <time>2020-07-22T19:40:52Z</time>
      </trkpt>
      <trkpt lat="46.87234" lon="-0.00765">
        <ele>62</ele>
        <time>2020-07-22T19:41:14Z</time>
      </trkpt>
      <trkpt lat="46.87187" lon="-0.00782">
        <ele>61</ele>
        <time>2020-07-22T19:41:53Z</time>
      </trkpt>
      <trkpt lat="46.87153" lon="-0.00868">
        <ele>61</ele>
        <time>2020-07-22T19:42:47Z</time>
      </trkpt>
      <trkpt lat="46.8714" lon="-0.00977">
        <ele>63</ele>
        <time>2020-07-22T19:43:48Z</time>
      </trkpt>
      <trkpt lat="46.87105" lon="-0.01041">
        <ele>67</ele>
        <time>2020-07-22T19:44:33Z</time>
      </trkpt>
      <trkpt lat="46.87131" lon="-0.0108">
        <ele>66</ele>
        <time>2020-07-22T19:45:03Z</time>
      </trkpt>
      <trkpt lat="46.87132" lon="-0.01138">
        <ele>65</ele>
        <time>2020-07-22T19:45:34Z</time>
      </trkpt>
      <trkpt lat="46.87143" lon="-0.01243">
        <ele>62</ele>
        <time>2020-07-22T19:46:33Z</time>
      </trkpt>
      <trkpt lat="46.8704" lon="-0.01372">
        <ele>63</ele>
        <time>2020-07-22T19:48:21Z</time>
      </trkpt>
      <trkpt lat="46.86945" lon="-0.01453">
        <ele>66</ele>
        <time>2020-07-22T19:49:49Z</time>
      </trkpt>
      <trkpt lat="46.8683" lon="-0.01526">
        <ele>67</ele>
        <time>2020-07-22T19:51:30Z</time>
      </trkpt>
      <trkpt lat="46.86651" lon="-0.0167">
        <ele>66</ele>
        <time>2020-07-22T19:54:13Z</time>
      </trkpt>
      <trkpt lat="46.86543" lon="-0.01754">
        <ele>64</ele>
        <time>2020-07-22T19:55:51Z</time>
      </trkpt>
      <trkpt lat="46.86393" lon="-0.01825">
        <ele>64</ele>
        <time>2020-07-22T19:57:57Z</time>
      </trkpt>
      <trkpt lat="46.86371" lon="-0.01848">
        <ele>64</ele>
        <time>2020-07-22T19:58:19Z</time>
      </trkpt>
      <trkpt lat="46.86185" lon="-0.01917">
        <ele>64</ele>
        <time>2020-07-22T20:00:53Z</time>
      </trkpt>
      <trkpt lat="46.86122" lon="-0.0191">
        <ele>64</ele>
        <time>2020-07-22T20:01:43Z</time>
      </trkpt>
      <trkpt lat="46.85969" lon="-0.01844">
        <ele>66</ele>
        <time>2020-07-22T20:03:51Z</time>
      </trkpt>
      <trkpt lat="46.85837" lon="-0.01859">
        <ele>67</ele>
        <time>2020-07-22T20:05:37Z</time>
      </trkpt>
      <trkpt lat="46.85827" lon="-0.01803">
        <ele>67</ele>
        <time>2020-07-22T20:06:09Z</time>
      </trkpt>
      <trkpt lat="46.85799" lon="-0.01756">
        <ele>67</ele>
        <time>2020-07-22T20:06:43Z</time>
      </trkpt>
      <trkpt lat="46.85784" lon="-0.01754">
        <ele>67</ele>
        <time>2020-07-22T20:06:55Z</time>
      </trkpt>
      <trkpt lat="46.85768" lon="-0.0178">
        <ele>67</ele>
        <time>2020-07-22T20:07:14Z</time>
      </trkpt>
      <trkpt lat="46.85723" lon="-0.01816">
        <ele>68</ele>
        <time>2020-07-22T20:07:55Z</time>
      </trkpt>
      <trkpt lat="46.85696" lon="-0.01913">
        <ele>73</ele>
        <time>2020-07-22T20:08:52Z</time>
      </trkpt>
      <trkpt lat="46.85607" lon="-0.02082">
        <ele>80</ele>
        <time>2020-07-22T20:10:49Z</time>
      </trkpt>
      <trkpt lat="46.85576" lon="-0.02089">
        <ele>81.9</ele>
      </trkpt>
      <trkpt lat="46.85571" lon="-0.02089">
        <ele>82.2</ele>
      </trkpt>
      <trkpt lat="46.85542" lon="-0.0211">
        <ele>83</ele>
        <time>2020-07-22T18:16:20Z</time>
      </trkpt>
      <trkpt lat="46.85497" lon="-0.0211">
        <ele>85</ele>
        <time>2020-07-22T18:15:44Z</time>
      </trkpt>
      <trkpt lat="46.8545" lon="-0.02056">
        <ele>80</ele>
        <time>2020-07-22T18:14:57Z</time>
      </trkpt>
      <trkpt lat="46.85395" lon="-0.02099">
        <ele>80</ele>
        <time>2020-07-22T18:14:07Z</time>
      </trkpt>
      <trkpt lat="46.85335" lon="-0.02149">
        <ele>76</ele>
        <time>2020-07-22T18:13:11Z</time>
      </trkpt>
      <trkpt lat="46.85257" lon="-0.0225">
        <ele>76</ele>
        <time>2020-07-22T18:11:48Z</time>
      </trkpt>
      <trkpt lat="46.8521" lon="-0.02316">
        <ele>79</ele>
        <time>2020-07-22T18:10:56Z</time>
      </trkpt>
      <trkpt lat="46.85134" lon="-0.02357">
        <ele>79</ele>
        <time>2020-07-22T18:09:51Z</time>
      </trkpt>
      <trkpt lat="46.85055" lon="-0.02363">
        <ele>81</ele>
        <time>2020-07-22T18:08:48Z</time>
      </trkpt>
      <trkpt lat="46.8493" lon="-0.02333">
        <ele>81</ele>
        <time>2020-07-22T18:07:06Z</time>
      </trkpt>
      <trkpt lat="46.8487" lon="-0.02262">
        <ele>80</ele>
        <time>2020-07-22T18:06:04Z</time>
      </trkpt>
      <trkpt lat="46.84821" lon="-0.02185">
        <ele>79</ele>
        <time>2020-07-22T18:05:07Z</time>
      </trkpt>
      <trkpt lat="46.84794" lon="-0.02089">
        <ele>81</ele>
        <time>2020-07-22T18:04:10Z</time>
      </trkpt>
      <trkpt lat="46.84789" lon="-0.01973">
        <ele>78</ele>
        <time>2020-07-22T18:03:06Z</time>
      </trkpt>
      <trkpt lat="46.84804" lon="-0.01872">
        <ele>77</ele>
        <time>2020-07-22T18:02:10Z</time>
      </trkpt>
      <trkpt lat="46.84848" lon="-0.01743">
        <ele>76</ele>
        <time>2020-07-22T18:00:51Z</time>
      </trkpt>
      <trkpt lat="46.84811" lon="-0.01593">
        <ele>77</ele>
        <time>2020-07-22T17:59:23Z</time>
      </trkpt>
      <trkpt lat="46.84937" lon="-0.01511">
        <ele>74</ele>
        <time>2020-07-22T17:57:33Z</time>
      </trkpt>
      <trkpt lat="46.8499" lon="-0.01475">
        <ele>74</ele>
        <time>2020-07-22T17:56:46Z</time>
      </trkpt>
      <trkpt lat="46.84989" lon="-0.01426">
        <ele>75</ele>
        <time>2020-07-22T17:56:19Z</time>
      </trkpt>
      <trkpt lat="46.84948" lon="-0.01344">
        <ele>76</ele>
        <time>2020-07-22T17:55:24Z</time>
      </trkpt>
      <trkpt lat="46.84907" lon="-0.01316">
        <ele>75</ele>
        <time>2020-07-22T17:54:47Z</time>
      </trkpt>
      <trkpt lat="46.84848" lon="-0.01269">
        <ele>75</ele>
        <time>2020-07-22T17:53:54Z</time>
      </trkpt>
      <trkpt lat="46.8476" lon="-0.01237">
        <ele>76</ele>
        <time>2020-07-22T17:52:41Z</time>
      </trkpt>
      <trkpt lat="46.84686" lon="-0.01256">
        <ele>75</ele>
        <time>2020-07-22T17:51:41Z</time>
      </trkpt>
      <trkpt lat="46.84637" lon="-0.0131">
        <ele>76</ele>
        <time>2020-07-22T17:50:52Z</time>
      </trkpt>
      <trkpt lat="46.84585" lon="-0.01267">
        <ele>77</ele>
        <time>2020-07-22T17:50:04Z</time>
      </trkpt>
      <trkpt lat="46.8446" lon="-0.0134">
        <ele>74</ele>
        <time>2020-07-22T17:48:16Z</time>
      </trkpt>
      <trkpt lat="46.84126" lon="-0.01524">
        <ele>74</ele>
        <time>2020-07-22T17:43:30Z</time>
      </trkpt>
      <trkpt lat="46.84051" lon="-0.01428">
        <ele>74</ele>
        <time>2020-07-22T17:42:11Z</time>
      </trkpt>
      <trkpt lat="46.83953" lon="-0.0132">
        <ele>75</ele>
        <time>2020-07-22T17:40:32Z</time>
      </trkpt>
      <trkpt lat="46.83945" lon="-0.01284">
        <ele>75</ele>
        <time>2020-07-22T17:40:12Z</time>
      </trkpt>
      <trkpt lat="46.83895" lon="-0.01254">
        <ele>76</ele>
        <time>2020-07-22T17:39:28Z</time>
      </trkpt>
      <trkpt lat="46.83823" lon="-0.01237">
        <ele>76</ele>
        <time>2020-07-22T17:38:30Z</time>
      </trkpt>
      <trkpt lat="46.83762" lon="-0.01254">
        <ele>75</ele>
        <time>2020-07-22T17:37:40Z</time>
      </trkpt>
      <trkpt lat="46.83684" lon="-0.01252">
        <ele>76</ele>
        <time>2020-07-22T17:36:38Z</time>
      </trkpt>
      <trkpt lat="46.83611" lon="-0.01258">
        <ele>75</ele>
        <time>2020-07-22T17:35:39Z</time>
      </trkpt>
      <trkpt lat="46.83561" lon="-0.01241">
        <ele>75</ele>
        <time>2020-07-22T17:34:58Z</time>
      </trkpt>
      <trkpt lat="46.83464" lon="-0.01209">
        <ele>74</ele>
        <time>2020-07-22T17:33:38Z</time>
      </trkpt>
      <trkpt lat="46.83371" lon="-0.01134">
        <ele>74</ele>
        <time>2020-07-22T17:32:13Z</time>
      </trkpt>
      <trkpt lat="46.83333" lon="-0.01082">
        <ele>75</ele>
        <time>2020-07-22T17:31:32Z</time>
      </trkpt>
      <trkpt lat="46.83291" lon="-0.01026">
        <ele>76</ele>
        <time>2020-07-22T17:30:46Z</time>
      </trkpt>
      <trkpt lat="46.83296" lon="-0.00994">
        <ele>76</ele>
        <time>2020-07-22T17:30:28Z</time>
      </trkpt>
      <trkpt lat="46.83242" lon="-0.00994">
        <ele>75.9</ele>
      </trkpt>
      <trkpt lat="46.83206" lon="-0.01001">
        <ele>76.3</ele>
      </trkpt>
      <trkpt lat="46.83205" lon="-0.01015">
        <ele>76.4</ele>
      </trkpt>
      <trkpt lat="46.83205" lon="-0.01024">
        <ele>76</ele>
        <time>2020-07-22T16:59:52Z</time>
      </trkpt>
      <trkpt lat="46.83191" lon="-0.01123">
        <ele>77</ele>
        <time>2020-07-22T17:00:47Z</time>
      </trkpt>
      <trkpt lat="46.83175" lon="-0.01155">
        <ele>78</ele>
        <time>2020-07-22T17:01:09Z</time>
      </trkpt>
      <trkpt lat="46.83128" lon="-0.01112">
        <ele>77</ele>
        <time>2020-07-22T17:01:53Z</time>
      </trkpt>
      <trkpt lat="46.83032" lon="-0.01271">
        <ele>79</ele>
        <time>2020-07-22T17:03:49Z</time>
      </trkpt>
      <trkpt lat="46.82935" lon="-0.01361">
        <ele>82</ele>
        <time>2020-07-22T17:05:21Z</time>
      </trkpt>
      <trkpt lat="46.8284" lon="-0.01447">
        <ele>79</ele>
        <time>2020-07-22T17:06:51Z</time>
      </trkpt>
      <trkpt lat="46.8274" lon="-0.01584">
        <ele>81</ele>
        <time>2020-07-22T17:08:41Z</time>
      </trkpt>
      <trkpt lat="46.82712" lon="-0.01599">
        <ele>81</ele>
        <time>2020-07-22T17:09:05Z</time>
      </trkpt>
      <trkpt lat="46.82677" lon="-0.01522">
        <ele>79</ele>
        <time>2020-07-22T17:09:55Z</time>
      </trkpt>
      <trkpt lat="46.82668" lon="-0.01417">
        <ele>80</ele>
        <time>2020-07-22T17:10:53Z</time>
      </trkpt>
      <trkpt lat="46.82655" lon="-0.01372">
        <ele>82</ele>
        <time>2020-07-22T17:11:20Z</time>
      </trkpt>
      <trkpt lat="46.8273" lon="-0.01316">
        <ele>81</ele>
        <time>2020-07-22T17:12:27Z</time>
      </trkpt>
      <trkpt lat="46.82797" lon="-0.0125">
        <ele>82</ele>
        <time>2020-07-22T17:13:32Z</time>
      </trkpt>
      <trkpt lat="46.82841" lon="-0.01168">
        <ele>80</ele>
        <time>2020-07-22T17:14:29Z</time>
      </trkpt>
      <trkpt lat="46.82896" lon="-0.0102">
        <ele>80</ele>
        <time>2020-07-22T17:16:01Z</time>
      </trkpt>
      <trkpt lat="46.8291" lon="-0.00958">
        <ele>80</ele>
        <time>2020-07-22T17:16:37Z</time>
      </trkpt>
      <trkpt lat="46.82907" lon="-0.00857">
        <ele>81</ele>
        <time>2020-07-22T17:17:33Z</time>
      </trkpt>
      <trkpt lat="46.82907" lon="-0.0082">
        <ele>82</ele>
        <time>2020-07-22T17:17:53Z</time>
      </trkpt>
      <trkpt lat="46.82947" lon="-0.00767">
        <ele>84</ele>
        <time>2020-07-22T17:18:36Z</time>
      </trkpt>
      <trkpt lat="46.83032" lon="-0.00705">
        <ele>86</ele>
        <time>2020-07-22T17:19:52Z</time>
      </trkpt>
      <trkpt lat="46.83131" lon="-0.00687">
        <ele>86</ele>
        <time>2020-07-22T17:21:12Z</time>
      </trkpt>
      <trkpt lat="46.8323" lon="-0.00644">
        <ele>87</ele>
        <time>2020-07-22T17:22:35Z</time>
      </trkpt>
      <trkpt lat="46.83321" lon="-0.00681">
        <ele>85</ele>
        <time>2020-07-22T17:23:50Z</time>
      </trkpt>
      <trkpt lat="46.83329" lon="-0.00694">
        <ele>84.1</ele>
      </trkpt>
      <trkpt lat="46.83333" lon="-0.00694">
        <ele>85</ele>
        <time>2020-07-22T16:53:58Z</time>
      </trkpt>
      <trkpt lat="46.83423" lon="-0.00771">
        <ele>81</ele>
        <time>2020-07-22T16:52:35Z</time>
      </trkpt>
      <trkpt lat="46.8343" lon="-0.00827">
        <ele>79</ele>
        <time>2020-07-22T16:52:03Z</time>
      </trkpt>
      <trkpt lat="46.8349" lon="-0.00988">
        <ele>77</ele>
        <time>2020-07-22T16:50:23Z</time>
      </trkpt>
      <trkpt lat="46.8353" lon="-0.00996">
        <ele>77</ele>
        <time>2020-07-22T16:49:51Z</time>
      </trkpt>
      <trkpt lat="46.83555" lon="-0.00969">
        <ele>79</ele>
        <time>2020-07-22T16:49:26Z</time>
      </trkpt>
      <trkpt lat="46.83597" lon="-0.00964">
        <ele>81</ele>
        <time>2020-07-22T16:48:52Z</time>
      </trkpt>
      <trkpt lat="46.83636" lon="-0.01005">
        <ele>80</ele>
        <time>2020-07-22T16:48:14Z</time>
      </trkpt>
      <trkpt lat="46.83663" lon="-0.01091">
        <ele>78</ele>
        <time>2020-07-22T16:47:22Z</time>
      </trkpt>
      <trkpt lat="46.83793" lon="-0.01078">
        <ele>76</ele>
        <time>2020-07-22T16:45:37Z</time>
      </trkpt>
      <trkpt lat="46.8406" lon="-0.01035">
        <ele>79</ele>
        <time>2020-07-22T16:42:02Z</time>
      </trkpt>
      <trkpt lat="46.84141" lon="-0.01056">
        <ele>82</ele>
        <time>2020-07-22T16:40:56Z</time>
      </trkpt>
      <trkpt lat="46.84274" lon="-0.01198">
        <ele>79</ele>
        <time>2020-07-22T16:38:45Z</time>
      </trkpt>
      <trkpt lat="46.84321" lon="-0.01222">
        <ele>79</ele>
        <time>2020-07-22T16:38:05Z</time>
      </trkpt>
      <trkpt lat="46.84372" lon="-0.01202">
        <ele>78</ele>
        <time>2020-07-22T16:37:22Z</time>
      </trkpt>
      <trkpt lat="46.84425" lon="-0.01149">
        <ele>77</ele>
        <time>2020-07-22T16:36:31Z</time>
      </trkpt>
      <trkpt lat="46.84447" lon="-0.01093">
        <ele>80</ele>
        <time>2020-07-22T16:35:56Z</time>
      </trkpt>
      <trkpt lat="46.84463" lon="-0.01065">
        <ele>81</ele>
        <time>2020-07-22T16:35:36Z</time>
      </trkpt>
      <trkpt lat="46.84521" lon="-0.01112">
        <ele>76</ele>
        <time>2020-07-22T16:34:43Z</time>
      </trkpt>
      <trkpt lat="46.84776" lon="-0.00981">
        <ele>74</ele>
        <time>2020-07-22T16:31:06Z</time>
      </trkpt>
      <trkpt lat="46.84864" lon="-0.00999">
        <ele>76</ele>
        <time>2020-07-22T16:29:55Z</time>
      </trkpt>
      <trkpt lat="46.84937" lon="-0.01056">
        <ele>80</ele>
        <time>2020-07-22T16:28:49Z</time>
      </trkpt>
      <trkpt lat="46.84968" lon="-0.01097">
        <ele>80</ele>
        <time>2020-07-22T16:28:15Z</time>
      </trkpt>
      <trkpt lat="46.85159" lon="-0.01441">
        <ele>80</ele>
        <time>2020-07-22T16:24:13Z</time>
      </trkpt>
      <trkpt lat="46.85188" lon="-0.01567">
        <ele>79</ele>
        <time>2020-07-22T16:23:00Z</time>
      </trkpt>
      <trkpt lat="46.85197" lon="-0.01687">
        <ele>81</ele>
        <time>2020-07-22T16:21:54Z</time>
      </trkpt>
      <trkpt lat="46.85163" lon="-0.01825">
        <ele>77</ele>
        <time>2020-07-22T16:20:33Z</time>
      </trkpt>
      <trkpt lat="46.85165" lon="-0.01876">
        <ele>76</ele>
        <time>2020-07-22T16:20:06Z</time>
      </trkpt>
      <trkpt lat="46.85232" lon="-0.01915">
        <ele>72</ele>
        <time>2020-07-22T16:19:08Z</time>
      </trkpt>
      <trkpt lat="46.8542" lon="-0.01754">
        <ele>73</ele>
        <time>2020-07-22T16:16:13Z</time>
      </trkpt>
      <trkpt lat="46.85483" lon="-0.01711">
        <ele>72</ele>
        <time>2020-07-22T16:15:18Z</time>
      </trkpt>
      <trkpt lat="46.85548" lon="-0.01709">
        <ele>69</ele>
        <time>2020-07-22T16:14:26Z</time>
      </trkpt>
      <trkpt lat="46.85565" lon="-0.0172">
        <ele>69</ele>
        <time>2020-07-22T16:14:11Z</time>
      </trkpt>
      <trkpt lat="46.85583" lon="-0.01747">
        <ele>69</ele>
      </trkpt>
      <trkpt lat="46.85584" lon="-0.01751">
        <ele>69</ele>
      </trkpt>
      <trkpt lat="46.85633" lon="-0.01682">
        <ele>68.2</ele>
      </trkpt>
      <trkpt lat="46.85618" lon="-0.01624">
        <ele>70.1</ele>
      </trkpt>
      <trkpt lat="46.85622" lon="-0.01629">
        <ele>69.9</ele>
      </trkpt>
      <trkpt lat="46.85805" lon="-0.01638">
        <ele>70</ele>
        <time>2020-07-22T18:24:18Z</time>
      </trkpt>
      <trkpt lat="46.85915" lon="-0.01689">
        <ele>68</ele>
        <time>2020-07-22T18:25:51Z</time>
      </trkpt>
      <trkpt lat="46.85994" lon="-0.01687">
        <ele>67</ele>
        <time>2020-07-22T18:26:54Z</time>
      </trkpt>
      <trkpt lat="46.8607" lon="-0.01681">
        <ele>64</ele>
        <time>2020-07-22T18:27:55Z</time>
      </trkpt>
      <trkpt lat="46.86277" lon="-0.01563">
        <ele>67</ele>
        <time>2020-07-22T18:30:53Z</time>
      </trkpt>
      <trkpt lat="46.86348" lon="-0.01522">
        <ele>66</ele>
        <time>2020-07-22T18:31:54Z</time>
      </trkpt>
      <trkpt lat="46.86594" lon="-0.01284">
        <ele>63</ele>
        <time>2020-07-22T18:35:50Z</time>
      </trkpt>
      <trkpt lat="46.86738" lon="-0.01179">
        <ele>66</ele>
        <time>2020-07-22T18:37:59Z</time>
      </trkpt>
      <trkpt lat="46.86912" lon="-0.01009">
        <ele>63</ele>
        <time>2020-07-22T18:40:47Z</time>
      </trkpt>
      <trkpt lat="46.8698" lon="-0.00917">
        <ele>66</ele>
        <time>2020-07-22T18:42:01Z</time>
      </trkpt>
      <trkpt lat="46.87027" lon="-0.00827">
        <ele>62</ele>
        <time>2020-07-22T18:43:03Z</time>
      </trkpt>
      <trkpt lat="46.87071" lon="-0.00908">
        <ele>65</ele>
        <time>2020-07-22T18:43:59Z</time>
      </trkpt>
      <trkpt lat="46.87112" lon="-0.01061">
        <ele>67</ele>
        <time>2020-07-22T18:45:29Z</time>
      </trkpt>
      <trkpt lat="46.8714" lon="-0.00953">
        <ele>63</ele>
        <time>2020-07-22T18:46:33Z</time>
      </trkpt>
      <trkpt lat="46.87162" lon="-0.00848">
        <ele>60</ele>
        <time>2020-07-22T18:47:33Z</time>
      </trkpt>
      <trkpt lat="46.87203" lon="-0.00775">
        <ele>61</ele>
        <time>2020-07-22T18:48:24Z</time>
      </trkpt>
      <trkpt lat="46.87223" lon="-0.00773">
        <ele>62</ele>
        <time>2020-07-22T18:48:40Z</time>
      </trkpt>
      <trkpt lat="46.87239" lon="-0.00668">
        <ele>64</ele>
        <time>2020-07-22T18:49:39Z</time>
      </trkpt>
      <trkpt lat="46.87222" lon="-0.00576">
        <ele>66</ele>
        <time>2020-07-22T18:50:32Z</time>
      </trkpt>
      <trkpt lat="46.87242" lon="-0.0052">
        <ele>65</ele>
        <time>2020-07-22T18:51:06Z</time>
      </trkpt>
      <trkpt lat="46.87263" lon="-0.00374">
        <ele>63</ele>
        <time>2020-07-22T18:52:28Z</time>
      </trkpt>
      <trkpt lat="46.87313" lon="-0.00325">
        <ele>63</ele>
        <time>2020-07-22T18:53:16Z</time>
      </trkpt>
      <trkpt lat="46.8743" lon="-0.00314">
        <ele>61</ele>
        <time>2020-07-22T18:54:50Z</time>
      </trkpt>
      <trkpt lat="46.87562" lon="-0.00308">
        <ele>62</ele>
        <time>2020-07-22T18:56:36Z</time>
      </trkpt>
      <trkpt lat="46.87744" lon="-0.0026">
        <ele>64</ele>
        <time>2020-07-22T18:59:04Z</time>
      </trkpt>
      <trkpt lat="46.87814" lon="-0.0023">
        <ele>64</ele>
        <time>2020-07-22T19:00:02Z</time>
      </trkpt>
      <trkpt lat="46.87848" lon="-0.00202">
        <ele>63</ele>
        <time>2020-07-22T19:00:33Z</time>
      </trkpt>
      <trkpt lat="46.87892" lon="-0.00245">
        <ele>63</ele>
        <time>2020-07-22T19:01:16Z</time>
      </trkpt>
      <trkpt lat="46.87924" lon="-0.00344">
        <ele>61</ele>
        <time>2020-07-22T19:02:16Z</time>
      </trkpt>
      <trkpt lat="46.87976" lon="-0.00421">
        <ele>60</ele>
        <time>2020-07-22T19:03:15Z</time>
      </trkpt>
      <trkpt lat="46.88061" lon="-0.00518">
        <ele>61</ele>
        <time>2020-07-22T19:04:41Z</time>
      </trkpt>
      <trkpt lat="46.88102" lon="-0.00683">
        <ele>62</ele>
        <time>2020-07-22T19:06:17Z</time>
      </trkpt>
      <trkpt lat="46.88181" lon="-0.00782">
        <ele>62</ele>
        <time>2020-07-22T19:07:41Z</time>
      </trkpt>
      <trkpt lat="46.88208" lon="-0.00823">
        <ele>62</ele>
        <time>2020-07-22T19:08:12Z</time>
      </trkpt>
      <trkpt lat="46.88158" lon="-0.01003">
        <ele>62</ele>
        <time>2020-07-22T19:09:58Z</time>
      </trkpt>
      <trkpt lat="46.88165" lon="-0.01078">
        <ele>65</ele>
        <time>2020-07-22T19:10:39Z</time>
      </trkpt>
      <trkpt lat="46.88122" lon="-0.01235">
        <ele>66</ele>
        <time>2020-07-22T19:12:12Z</time>
      </trkpt>
      <trkpt lat="46.88096" lon="-0.01342">
        <ele>64</ele>
        <time>2020-07-22T19:13:14Z</time>
      </trkpt>
      <trkpt lat="46.88065" lon="-0.01432">
        <ele>62</ele>
        <time>2020-07-22T19:14:09Z</time>
      </trkpt>
      <trkpt lat="46.88067" lon="-0.01589">
        <ele>61</ele>
      </trkpt>
      <trkpt lat="46.88075" lon="-0.01651">
        <ele>61</ele>
      </trkpt>
      <trkpt lat="46.88074" lon="-0.01713">
        <ele>61</ele>
        <time>2020-07-22T19:16:44Z</time>
      </trkpt>
      <trkpt lat="46.88098" lon="-0.01713">
        <ele>63.3</ele>
      </trkpt>
      <trkpt lat="46.88119" lon="-0.01704">
        <ele>63.8</ele>
      </trkpt>
      <trkpt lat="46.8814" lon="-0.01691">
        <ele>64.7</ele>
      </trkpt>
      <trkpt lat="46.88158" lon="-0.01719">
        <ele>64.7</ele>
      </trkpt>
    </trkseg>
  </trk>
</gpx>